createdAt,value
2022-10-22T00:00:50.629Z,26.38
2022-10-22T00:03:17.964Z,25.05
2022-10-22T00:05:45.173Z,24.58
2022-10-22T00:08:12.277Z,25.92
2022-10-22T00:10:39.372Z,25.70
2022-10-22T00:13:07.001Z,24.70
2022-10-22T00:15:34.230Z,26.55
2022-10-22T00:18:01.371Z,25.95
2022-10-22T00:20:28.586Z,26.23
2022-10-22T00:22:55.584Z,25.63
2022-10-22T00:25:22.715Z,24.75
2022-10-22T00:27:49.950Z,23.83
2022-10-22T00:30:17.094Z,24.83
2022-10-22T00:32:44.181Z,24.83
2022-10-22T00:35:11.419Z,25.75
2022-10-22T00:37:38.466Z,25.08
2022-10-22T00:40:06.672Z,26.20
2022-10-22T00:42:33.760Z,28.00
2022-10-22T00:45:03.738Z,24.58
2022-10-22T00:47:42.974Z,25.10
2022-10-22T00:50:19.305Z,27.20
2022-10-22T00:52:47.124Z,25.85
2022-10-22T00:55:16.294Z,25.95
2022-10-22T00:57:44.487Z,27.55
2022-10-22T01:00:12.366Z,27.13
2022-10-22T01:02:39.823Z,27.23
2022-10-22T01:05:08.083Z,27.55
2022-10-22T01:07:44.610Z,29.60
2022-10-22T01:10:26.974Z,27.63
2022-10-22T01:12:59.859Z,26.77
2022-10-22T01:16:04.551Z,26.20
2022-10-22T01:19:19.499Z,26.23
2022-10-22T01:21:57.125Z,25.35
2022-10-22T01:24:48.155Z,26.23
2022-10-22T01:27:31.427Z,26.10
2022-10-22T01:30:08.455Z,27.25
2022-10-22T01:32:48.563Z,25.40
2022-10-22T01:35:24.693Z,27.20
2022-10-22T01:37:59.936Z,26.00
2022-10-22T01:40:29.015Z,25.67
2022-10-22T01:43:01.505Z,26.13
2022-10-22T01:48:21.726Z,24.63
2022-10-22T01:51:29.604Z,24.35
2022-10-22T01:54:18.906Z,24.77
2022-10-22T01:57:05.477Z,26.30
2022-10-22T02:00:01.747Z,25.00
2022-10-22T02:02:51.172Z,25.90
2022-10-22T02:05:21.629Z,25.77
2022-10-22T02:08:11.872Z,24.92
2022-10-22T02:10:43.481Z,27.13
2022-10-22T02:13:19.665Z,26.63
2022-10-22T02:15:51.405Z,26.33
2022-10-22T02:18:23.810Z,27.33
2022-10-22T02:20:52.324Z,25.20
2022-10-22T02:23:21.995Z,27.60
2022-10-22T02:25:59.025Z,26.30
2022-10-22T02:28:44.363Z,27.73
2022-10-22T02:31:23.304Z,26.55
2022-10-22T02:33:56.488Z,27.35
2022-10-22T02:36:25.340Z,25.98
2022-10-22T02:38:53.964Z,26.58
2022-10-22T02:41:21.074Z,24.67
2022-10-22T02:43:55.062Z,25.65
2022-10-22T02:46:22.897Z,25.80
2022-10-22T02:48:49.941Z,25.52
2022-10-22T02:51:17.142Z,26.38
2022-10-22T02:53:44.189Z,26.63
2022-10-22T02:56:11.455Z,25.92
2022-10-22T02:58:38.530Z,26.85
2022-10-22T03:01:05.924Z,27.08
2022-10-22T03:03:33.075Z,25.30
2022-10-22T03:06:00.589Z,25.08
2022-10-22T03:08:27.826Z,26.58
2022-10-22T03:10:54.951Z,26.85
2022-10-22T03:13:22.223Z,25.23
2022-10-22T03:15:50.664Z,25.35
2022-10-22T03:18:18.212Z,25.15
2022-10-22T03:20:45.427Z,25.58
2022-10-22T03:23:18.313Z,24.90
2022-10-22T03:25:49.768Z,24.17
2022-10-22T03:28:18.707Z,26.65
2022-10-22T03:30:45.726Z,25.23
2022-10-22T03:33:12.802Z,25.67
2022-10-22T03:35:46.741Z,25.80
2022-10-22T03:38:14.830Z,25.17
2022-10-22T03:40:44.784Z,24.98
2022-10-22T03:43:12.450Z,25.45
2022-10-22T03:45:39.498Z,24.55
2022-10-22T03:48:06.750Z,25.05
2022-10-22T03:50:34.045Z,24.23
2022-10-22T03:53:01.333Z,23.65
2022-10-22T03:55:28.711Z,24.00
2022-10-22T03:57:55.755Z,24.48
2022-10-22T04:00:22.877Z,24.20
2022-10-22T04:02:49.982Z,23.50
2022-10-22T04:05:17.213Z,22.70
2022-10-22T04:07:44.707Z,23.35
2022-10-22T04:10:11.707Z,24.23
2022-10-22T04:12:38.838Z,22.92
2022-10-22T04:15:06.578Z,24.48
2022-10-22T04:17:36.656Z,25.08
2022-10-22T04:20:05.408Z,25.05
2022-10-22T04:22:36.920Z,24.67
2022-10-22T04:25:05.521Z,24.17
2022-10-22T04:27:34.398Z,23.85
2022-10-22T04:30:02.361Z,24.25
2022-10-22T04:32:29.777Z,24.63
2022-10-22T04:34:56.834Z,24.92
2022-10-22T04:37:23.950Z,25.15
2022-10-22T04:39:51.097Z,25.77
2022-10-22T04:42:18.187Z,25.38
2022-10-22T04:44:45.356Z,25.23
2022-10-22T04:47:12.457Z,25.95
2022-10-22T04:49:40.257Z,25.17
2022-10-22T04:52:07.325Z,25.92
2022-10-22T04:54:34.422Z,25.48
2022-10-22T04:57:01.418Z,25.70
2022-10-22T04:59:28.538Z,26.08
2022-10-22T05:01:55.692Z,27.02
2022-10-22T05:04:22.787Z,26.60
2022-10-22T05:06:49.939Z,25.73
2022-10-22T05:09:36.524Z,25.05
2022-10-22T05:12:04.387Z,27.02
2022-10-22T05:14:31.466Z,26.73
2022-10-22T05:16:58.876Z,26.08
2022-10-22T05:19:29.597Z,25.77
2022-10-22T05:22:00.522Z,27.20
2022-10-22T05:24:31.435Z,26.65
2022-10-22T05:27:00.363Z,26.63
2022-10-22T05:29:28.087Z,25.58
2022-10-22T05:31:55.499Z,24.80
2022-10-22T05:34:22.594Z,27.60
2022-10-22T05:36:49.859Z,24.10
2022-10-22T05:39:16.915Z,26.50
2022-10-22T05:41:44.091Z,26.88
2022-10-22T05:44:13.054Z,25.88
2022-10-22T05:46:40.905Z,25.02
2022-10-22T05:49:08.725Z,24.90
2022-10-22T05:51:37.459Z,24.55
2022-10-22T05:54:08.374Z,26.08
2022-10-22T05:56:36.730Z,25.33
2022-10-22T05:59:04.423Z,23.50
2022-10-22T06:01:57.779Z,24.52
2022-10-22T06:04:25.211Z,24.70
2022-10-22T06:06:54.293Z,24.35
2022-10-22T06:09:31.728Z,24.88
2022-10-22T06:12:00.646Z,23.67
2022-10-22T06:14:29.108Z,23.38
2022-10-22T06:16:59.483Z,23.40
2022-10-22T06:19:31.147Z,24.33
2022-10-22T06:21:58.756Z,22.73
2022-10-22T06:24:25.810Z,23.67
2022-10-22T06:26:53.459Z,23.92
2022-10-22T06:29:20.831Z,22.00
2022-10-22T06:31:48.927Z,23.08
2022-10-22T06:34:18.964Z,23.70
2022-10-22T06:36:47.068Z,22.67
2022-10-22T06:39:17.094Z,22.77
2022-10-22T06:41:47.407Z,21.50
2022-10-22T06:44:21.301Z,24.02
2022-10-22T06:46:53.228Z,22.38
2022-10-22T06:49:21.787Z,21.30
2022-10-22T06:51:54.331Z,22.27
2022-10-22T06:54:22.994Z,22.85
2022-10-22T06:56:50.430Z,23.02
2022-10-22T06:59:21.025Z,23.08
2022-10-22T07:01:48.587Z,22.00
2022-10-22T07:05:18.185Z,21.95
2022-10-22T07:19:31.574Z,22.08
2022-10-22T07:28:51.609Z,20.85
2022-10-22T07:32:00.779Z,20.63
2022-10-22T07:52:16.829Z,20.52
2022-10-22T07:55:08.546Z,21.33
2022-10-22T07:57:49.734Z,22.20
2022-10-22T08:00:48.406Z,21.33
2022-10-22T08:03:46.737Z,22.20
2022-10-22T08:16:30.566Z,2.15
2022-10-22T08:20:00.010Z,1.92
2022-10-22T08:22:43.096Z,1.52
2022-10-22T08:26:40.988Z,1.33
2022-10-22T08:30:13.228Z,2.28
2022-10-22T08:33:06.978Z,2.22
2022-10-22T08:35:34.250Z,2.05
2022-10-22T08:38:04.649Z,1.77
2022-10-22T08:40:55.032Z,2.03
2022-10-22T08:52:04.953Z,1.80
2022-10-22T08:54:54.243Z,2.30
2022-10-22T08:57:59.677Z,5.57
2022-10-22T09:00:46.174Z,12.48
2022-10-22T09:03:53.243Z,12.95
2022-10-22T09:06:26.094Z,16.58
2022-10-22T09:08:56.726Z,20.25
2022-10-22T09:11:32.368Z,22.02
2022-10-22T09:14:01.278Z,20.40
2022-10-22T09:17:02.633Z,22.35
2022-10-22T09:20:08.271Z,22.33
2022-10-22T09:23:24.726Z,21.00
2022-10-22T09:25:52.713Z,19.58
2022-10-22T09:28:21.054Z,19.73
2022-10-22T09:30:48.211Z,19.52
2022-10-22T09:33:31.104Z,19.13
2022-10-22T09:36:07.400Z,17.75
2022-10-22T09:38:54.780Z,16.60
2022-10-22T09:41:29.834Z,15.40
2022-10-22T09:43:59.289Z,14.68
2022-10-22T09:46:39.754Z,14.45
2022-10-22T09:49:14.579Z,14.10
2022-10-22T09:51:59.441Z,14.15
2022-10-22T09:54:32.869Z,13.23
2022-10-22T09:57:17.615Z,13.25
2022-10-22T09:59:50.390Z,13.43
2022-10-22T10:02:44.004Z,13.60
2022-10-22T10:05:24.579Z,12.50
2022-10-22T10:07:51.716Z,13.98
2022-10-22T10:10:35.424Z,13.23
2022-10-22T10:13:24.196Z,12.65
2022-10-22T10:16:28.273Z,11.15
2022-10-22T10:19:20.764Z,9.77
2022-10-22T10:25:01.304Z,10.25
2022-10-22T10:27:44.188Z,9.27
2022-10-22T10:30:18.073Z,8.25
2022-10-22T10:33:22.348Z,8.05
2022-10-22T10:36:12.075Z,7.57
2022-10-22T10:38:49.112Z,6.85
2022-10-22T10:41:22.117Z,8.38
2022-10-22T10:44:22.224Z,7.20
2022-10-22T10:47:04.559Z,7.13
2022-10-22T10:49:35.467Z,6.93
2022-10-22T10:52:38.643Z,6.25
2022-10-22T10:55:25.535Z,2.08
2022-10-22T10:58:17.759Z,3.20
2022-10-22T11:00:58.246Z,0.77
2022-10-22T11:04:08.142Z,0.93
2022-10-22T11:06:39.226Z,0.88
2022-10-22T11:09:23.057Z,0.60
2022-10-22T11:12:05.437Z,0.70
2022-10-22T11:14:40.312Z,0.63
2022-10-22T11:17:20.887Z,0.80
2022-10-22T11:20:06.900Z,0.73
2022-10-22T11:23:00.407Z,0.68
2022-10-22T11:25:41.214Z,0.80
2022-10-22T11:28:40.041Z,0.70
2022-10-22T11:31:16.001Z,0.80
2022-10-22T11:34:21.733Z,0.70
2022-10-22T11:36:56.074Z,1.20
2022-10-22T11:39:39.220Z,0.95
2022-10-22T11:42:33.570Z,1.00
2022-10-22T11:45:04.911Z,1.00
2022-10-22T11:47:51.850Z,0.95
2022-10-22T11:50:44.406Z,0.95
2022-10-22T11:53:14.519Z,1.00
2022-10-22T11:55:51.610Z,0.80
2022-10-22T11:58:44.793Z,0.90
2022-10-22T12:01:11.991Z,1.02
2022-10-22T12:03:53.694Z,1.02
2022-10-22T12:06:28.895Z,1.10
2022-10-22T12:09:07.400Z,0.90
2022-10-22T12:11:40.525Z,1.50
2022-10-22T12:14:28.055Z,1.30
2022-10-22T12:17:16.202Z,0.90
2022-10-22T12:19:51.802Z,0.95
2022-10-22T12:22:27.191Z,1.00
2022-10-22T12:25:03.664Z,0.98
2022-10-22T12:27:39.313Z,1.13
2022-10-22T12:30:26.342Z,1.00
2022-10-22T12:33:02.926Z,1.08
2022-10-22T12:35:42.048Z,1.08
2022-10-22T12:38:23.260Z,0.82
2022-10-22T12:40:54.515Z,0.90
2022-10-22T12:43:30.196Z,0.85
2022-10-22T12:45:59.685Z,0.85
2022-10-22T12:48:46.225Z,1.02
2022-10-22T12:51:20.438Z,0.80
2022-10-22T12:53:54.778Z,0.73
2022-10-22T12:56:26.708Z,0.80
2022-10-22T12:59:00.973Z,1.00
2022-10-22T13:01:36.329Z,0.80
2022-10-22T13:04:19.707Z,0.80
2022-10-22T13:06:51.419Z,0.50
2022-10-22T13:09:26.836Z,0.73
2022-10-22T13:12:04.859Z,1.08
2022-10-22T13:14:38.593Z,0.70
2022-10-22T13:17:33.997Z,0.60
2022-10-22T13:20:23.379Z,0.70
2022-10-22T13:23:03.331Z,0.90
2022-10-22T13:25:38.606Z,0.55
2022-10-22T13:28:22.400Z,0.80
2022-10-22T13:31:02.732Z,0.60
2022-10-22T13:34:00.612Z,0.77
2022-10-22T13:36:29.921Z,0.70
2022-10-22T13:38:57.532Z,0.70
2022-10-22T13:41:54.747Z,0.50
2022-10-22T13:44:21.929Z,0.75
2022-10-22T13:46:49.044Z,0.50
2022-10-22T13:49:20.945Z,0.60
2022-10-22T13:51:48.222Z,0.70
2022-10-22T13:54:21.725Z,0.60
2022-10-22T13:56:49.217Z,0.50
2022-10-22T13:59:23.858Z,0.70
2022-10-22T14:01:52.190Z,0.70
2022-10-22T14:04:19.545Z,0.60
2022-10-22T14:06:46.911Z,0.50
2022-10-22T14:09:16.245Z,0.70
2022-10-22T14:11:43.560Z,0.57
2022-10-22T14:14:14.201Z,0.60
2022-10-22T14:16:41.610Z,0.40
2022-10-22T14:19:16.414Z,0.50
2022-10-22T14:21:43.890Z,0.93
2022-10-22T14:24:13.139Z,0.77
2022-10-22T14:26:41.306Z,0.45
2022-10-22T14:29:12.087Z,0.70
2022-10-22T14:31:44.885Z,0.77
2022-10-22T14:34:21.621Z,0.85
2022-10-22T14:36:48.931Z,0.75
2022-10-22T14:39:17.798Z,0.80
2022-10-22T14:41:45.135Z,0.80
2022-10-22T14:44:14.231Z,0.90
2022-10-22T14:46:42.610Z,0.80
2022-10-22T14:49:09.852Z,0.90
2022-10-22T14:51:37.043Z,0.90
2022-10-22T14:54:04.177Z,1.25
2022-10-22T14:56:31.415Z,0.93
2022-10-22T14:58:58.565Z,0.90
2022-10-22T15:01:25.704Z,1.00
2022-10-22T15:03:52.761Z,0.80
2022-10-22T15:06:19.813Z,0.80
2022-10-22T15:08:46.857Z,0.60
2022-10-22T15:11:14.170Z,0.95
2022-10-22T15:13:42.143Z,0.90
2022-10-22T15:16:11.411Z,0.90
2022-10-22T15:18:38.759Z,0.90
2022-10-22T15:21:14.928Z,0.98
2022-10-22T15:23:42.096Z,1.00
2022-10-22T15:26:11.287Z,1.10
2022-10-22T15:28:40.309Z,0.93
2022-10-22T15:31:08.449Z,0.60
2022-10-22T15:33:35.736Z,1.17
2022-10-22T15:36:17.085Z,1.10
2022-10-22T15:38:44.118Z,0.77
2022-10-22T15:41:13.411Z,1.27
2022-10-22T15:43:40.621Z,1.10
2022-10-22T15:46:16.482Z,1.13
2022-10-22T15:48:45.075Z,2.13
2022-10-22T15:51:17.648Z,1.23
2022-10-22T15:53:54.236Z,1.20
2022-10-22T15:56:22.434Z,1.52
2022-10-22T15:58:55.065Z,1.50
2022-10-22T16:01:22.599Z,1.30
2022-10-22T16:04:00.264Z,1.42
2022-10-22T16:06:34.331Z,1.80
2022-10-22T16:09:06.587Z,1.70
2022-10-22T16:14:01.766Z,2.10
2022-10-22T16:16:34.144Z,2.63
2022-10-22T16:19:01.903Z,2.95
2022-10-22T16:21:29.424Z,2.38
2022-10-22T16:23:56.560Z,2.78
2022-10-22T16:26:24.015Z,3.20
2022-10-22T16:28:51.858Z,3.42
2022-10-22T16:31:19.802Z,4.13
2022-10-22T16:33:53.383Z,3.58
2022-10-22T16:36:21.620Z,4.15
2022-10-22T16:38:49.563Z,4.40
2022-10-22T16:41:23.115Z,4.35
2022-10-22T16:43:55.390Z,4.25
2022-10-22T16:46:23.476Z,4.00
2022-10-22T16:48:52.933Z,4.38
2022-10-22T16:51:23.860Z,5.25
2022-10-22T16:53:55.964Z,5.00
2022-10-22T16:56:24.906Z,5.22
2022-10-22T16:58:56.549Z,5.70
2022-10-22T17:01:29.723Z,5.77
2022-10-22T17:04:00.112Z,4.60
2022-10-22T17:06:27.863Z,4.60
2022-10-22T17:08:58.158Z,4.95
2022-10-22T17:11:25.834Z,4.95
2022-10-22T17:13:54.833Z,7.88
2022-10-22T17:16:24.731Z,9.55
2022-10-22T17:18:54.868Z,8.18
2022-10-22T17:21:53.651Z,7.50
2022-10-22T17:24:27.030Z,5.20
2022-10-22T17:26:54.175Z,7.05
2022-10-22T17:29:22.116Z,6.40
2022-10-22T17:31:50.244Z,4.78
2022-10-22T17:34:17.659Z,5.22
2022-10-22T17:36:45.155Z,5.03
2022-10-22T17:39:54.052Z,4.45
2022-10-22T17:58:21.022Z,3.85
2022-10-22T18:00:58.097Z,4.03
2022-10-22T18:03:25.669Z,4.03
2022-10-22T18:05:52.764Z,4.50
2022-10-22T18:22:53.433Z,4.00
2022-10-22T18:25:21.106Z,4.90
2022-10-22T18:27:48.380Z,4.10
2022-10-22T18:30:16.448Z,4.35
2022-10-22T18:32:43.487Z,4.68
2022-10-22T18:35:12.266Z,3.97
2022-10-22T18:37:40.032Z,3.80
2022-10-22T18:40:38.997Z,4.13
2022-10-22T18:43:06.088Z,4.18
2022-10-22T18:46:09.807Z,4.60
2022-10-22T18:56:57.975Z,14.32
2022-10-22T19:00:36.438Z,6.30
2022-10-22T19:04:10.162Z,6.65
2022-10-22T19:07:31.887Z,4.15
2022-10-22T19:11:19.878Z,3.72
2022-10-22T19:19:15.872Z,6.63
2022-10-22T19:21:52.565Z,4.18
2022-10-22T19:24:21.058Z,4.45
2022-10-22T19:26:49.546Z,4.57
2022-10-22T19:29:20.698Z,4.00
2022-10-22T19:31:50.544Z,4.50
2022-10-22T19:34:18.026Z,4.13
2022-10-22T19:36:45.266Z,4.10
2022-10-22T19:39:37.318Z,4.43
2022-10-22T19:42:05.033Z,4.13
2022-10-22T19:44:32.084Z,3.70
2022-10-22T19:47:00.414Z,3.80
2022-10-22T19:49:28.023Z,3.72
2022-10-22T19:51:55.103Z,3.67
2022-10-22T19:54:22.388Z,5.28
2022-10-22T19:56:50.562Z,3.83
2022-10-22T19:59:32.122Z,3.25
2022-10-22T20:01:59.769Z,3.25
2022-10-22T20:04:28.361Z,3.53
2022-10-22T20:06:56.304Z,2.97
2022-10-22T20:09:24.260Z,3.45
2022-10-22T20:11:51.812Z,3.90
2022-10-22T20:14:20.354Z,2.85
2022-10-22T20:16:47.790Z,2.60
2022-10-22T20:19:16.319Z,2.50
2022-10-22T20:21:45.564Z,2.45
2022-10-22T20:24:13.152Z,2.50
2022-10-22T20:26:40.436Z,2.80
2022-10-22T20:29:07.754Z,2.20
2022-10-22T20:31:36.308Z,2.47
2022-10-22T20:34:04.350Z,2.80
2022-10-22T20:36:32.600Z,2.97
2022-10-22T20:39:08.577Z,3.30
2022-10-22T20:41:40.686Z,3.08
2022-10-22T20:44:14.484Z,3.00
2022-10-22T20:46:42.399Z,3.00
2022-10-22T20:49:38.739Z,2.63
2022-10-22T20:52:06.074Z,2.95
2022-10-22T20:57:47.898Z,2.58
2022-10-22T21:00:15.605Z,2.78
2022-10-22T21:02:43.001Z,3.00
2022-10-22T21:05:10.503Z,2.33
2022-10-22T21:07:37.584Z,2.90
2022-10-22T21:10:05.420Z,2.70
2022-10-22T21:12:32.550Z,2.67
2022-10-22T21:14:59.953Z,2.60
2022-10-22T21:17:27.097Z,2.88
2022-10-22T21:19:56.844Z,3.40
2022-10-22T21:22:25.105Z,2.55
2022-10-22T21:24:52.291Z,3.13
2022-10-22T21:27:19.835Z,2.72
2022-10-22T21:29:47.028Z,2.97
2022-10-22T21:32:14.578Z,2.53
2022-10-22T21:34:41.963Z,3.13
2022-10-22T21:37:09.050Z,2.92
2022-10-22T21:39:41.944Z,2.88
2022-10-22T21:42:09.430Z,3.05
2022-10-22T21:44:36.652Z,4.20
2022-10-22T21:47:04.628Z,5.85
2022-10-22T21:49:31.815Z,9.57
2022-10-22T21:52:00.258Z,11.23
2022-10-22T21:54:27.376Z,11.98
2022-10-22T21:56:54.526Z,11.95
2022-10-22T21:59:21.706Z,13.23
2022-10-22T22:01:49.142Z,14.43
2022-10-22T22:04:16.250Z,15.25
2022-10-22T22:06:43.475Z,14.38
2022-10-22T22:09:11.044Z,13.55
2022-10-22T22:11:38.198Z,14.32
2022-10-22T22:14:05.486Z,13.32
2022-10-22T22:16:38.015Z,12.93
2022-10-22T22:19:13.751Z,13.30
2022-10-22T22:21:41.568Z,12.30
2022-10-22T22:24:13.045Z,12.63
2022-10-22T22:26:42.184Z,13.63
2022-10-22T22:29:12.256Z,13.73
2022-10-22T22:31:40.252Z,13.52
2022-10-22T22:34:15.091Z,13.05
2022-10-22T22:36:48.035Z,12.48
2022-10-22T22:39:23.482Z,12.60
2022-10-22T22:41:51.020Z,13.23
2022-10-22T22:44:18.324Z,12.90
2022-10-22T22:46:45.499Z,12.95
2022-10-22T22:49:13.937Z,12.77
2022-10-22T22:51:41.258Z,13.15
2022-10-22T22:54:09.844Z,13.13
2022-10-22T22:56:37.970Z,13.98
2022-10-22T22:59:06.305Z,13.27
2022-10-22T23:01:37.922Z,13.15
2022-10-22T23:04:16.418Z,12.45
2022-10-22T23:06:43.785Z,13.13
2022-10-22T23:09:14.038Z,13.90
2022-10-22T23:11:46.420Z,12.93
2022-10-22T23:14:16.460Z,13.57
2022-10-22T23:16:55.858Z,12.30
2022-10-22T23:19:23.786Z,14.68
2022-10-22T23:21:54.848Z,14.98
2022-10-22T23:24:26.826Z,13.93
2022-10-22T23:26:55.998Z,13.95
2022-10-22T23:29:27.597Z,13.88
2022-10-22T23:31:58.859Z,14.70
2022-10-22T23:34:26.315Z,13.57
2022-10-22T23:36:55.710Z,14.50
2022-10-22T23:39:28.736Z,14.77
2022-10-22T23:41:56.656Z,14.40
2022-10-22T23:44:24.898Z,14.77
2022-10-22T23:47:42.316Z,15.02
2022-10-22T23:50:09.804Z,13.52
2022-10-22T23:52:36.809Z,13.95
2022-10-22T23:55:04.259Z,14.75
2022-10-22T23:57:31.280Z,14.02
2022-10-22T23:59:58.224Z,14.05
